createdAt,value
2017-07-11T14:45:08.685Z,10.13
2017-07-11T14:47:37.089Z,10.40
2017-07-11T14:50:05.510Z,10.53
2017-07-11T14:52:33.906Z,8.17
2017-07-11T14:55:02.697Z,9.37
2017-07-11T14:57:31.804Z,8.90
2017-07-11T15:00:00.485Z,10.10
2017-07-11T15:02:29.276Z,9.43
2017-07-11T15:04:58.879Z,10.50
2017-07-11T15:07:27.976Z,9.53
2017-07-11T15:09:56.765Z,9.47
2017-07-11T15:12:25.571Z,9.87
2017-07-11T15:14:53.971Z,10.67
2017-07-11T15:17:22.501Z,9.43
2017-07-11T15:19:51.210Z,9.70
2017-07-11T15:22:19.997Z,8.70
2017-07-11T15:24:48.793Z,9.30
2017-07-11T15:27:17.172Z,9.47
2017-07-11T15:29:46.263Z,8.67
2017-07-11T15:32:15.055Z,8.77
2017-07-11T15:34:43.830Z,8.20
2017-07-11T15:37:12.633Z,8.50
2017-07-11T15:39:41.427Z,8.27
2017-07-11T15:42:09.822Z,8.10
2017-07-11T15:44:38.210Z,8.07
2017-07-11T15:47:07.509Z,8.70
2017-07-11T15:49:35.950Z,7.93
2017-07-11T15:52:04.834Z,7.10
2017-07-11T15:54:33.542Z,6.63
2017-07-11T15:57:02.347Z,7.70
2017-07-11T15:59:30.759Z,7.73
2017-07-11T16:01:59.172Z,7.00
2017-07-11T16:04:27.582Z,6.97
2017-07-11T16:06:55.964Z,7.80
2017-07-11T16:09:24.363Z,7.67
2017-07-11T16:11:52.763Z,6.97
2017-07-11T16:14:21.163Z,6.67
2017-07-11T16:16:49.585Z,7.10
2017-07-11T16:19:18.262Z,7.00
2017-07-11T16:21:46.666Z,7.40
2017-07-11T16:24:15.087Z,7.10
2017-07-11T16:26:43.483Z,7.20
2017-07-11T16:29:11.890Z,7.37
2017-07-11T16:31:40.272Z,7.27
2017-07-11T16:34:09.166Z,8.00
2017-07-11T16:36:38.077Z,7.60
2017-07-11T16:39:48.806Z,8.30
2017-07-11T16:42:17.189Z,9.07
2017-07-11T16:44:45.591Z,8.53
2017-07-11T16:47:14.003Z,14.00
2017-07-11T16:49:42.826Z,12.50
2017-07-11T16:52:11.251Z,10.90
2017-07-11T16:54:39.643Z,10.03
2017-07-11T16:57:08.090Z,10.63
2017-07-11T16:59:36.516Z,10.57
2017-07-11T17:02:05.023Z,7.80
2017-07-11T17:04:33.446Z,8.50
2017-07-11T17:07:02.949Z,8.93
2017-07-11T17:09:31.359Z,9.23
2017-07-11T17:11:59.785Z,9.00
2017-07-11T17:14:28.248Z,9.10
2017-07-11T17:16:56.710Z,7.70
2017-07-11T17:19:25.123Z,9.23
2017-07-11T17:21:53.500Z,7.27
2017-07-11T17:24:21.920Z,16.83
2017-07-11T17:26:50.306Z,7.90
2017-07-11T17:29:19.485Z,9.13
2017-07-11T17:31:47.893Z,9.03
2017-07-11T17:34:17.037Z,8.50
2017-07-11T17:36:45.439Z,8.00
2017-07-11T17:39:14.533Z,8.30
2017-07-11T17:41:43.334Z,8.70
2017-07-11T17:44:11.725Z,9.10
2017-07-11T17:46:40.147Z,9.13
2017-07-11T17:49:08.543Z,9.40
2017-07-11T17:51:37.250Z,9.33
2017-07-11T17:54:06.034Z,9.73
2017-07-11T17:56:35.227Z,9.37
2017-07-11T17:59:04.025Z,10.13
2017-07-11T18:01:33.103Z,9.87
2017-07-11T18:04:01.518Z,8.80
2017-07-11T18:06:29.926Z,10.90
2017-07-11T18:08:58.321Z,9.23
2017-07-11T18:11:26.713Z,10.70
2017-07-11T18:13:55.639Z,10.50
2017-07-11T18:16:24.431Z,10.57
2017-07-11T18:18:53.226Z,11.67
2017-07-11T18:21:22.656Z,9.90
2017-07-11T18:23:51.050Z,10.30
2017-07-11T18:26:19.449Z,9.93
2017-07-11T18:28:47.848Z,10.17
2017-07-11T18:31:16.663Z,12.00
2017-07-11T18:33:45.079Z,11.43
2017-07-11T18:36:13.701Z,12.70
2017-07-11T18:38:42.498Z,11.37
2017-07-11T18:41:11.293Z,12.50
2017-07-11T18:43:40.663Z,11.30
2017-07-11T18:46:09.079Z,13.40
2017-07-11T18:48:37.771Z,12.17
2017-07-11T18:51:06.161Z,15.97
2017-07-11T18:53:34.585Z,11.20
2017-07-11T18:56:02.987Z,12.37
2017-07-11T18:58:31.402Z,12.17
2017-07-11T19:00:59.793Z,13.20
2017-07-11T19:03:28.345Z,12.80
2017-07-11T19:05:57.130Z,13.47
2017-07-11T19:08:25.935Z,12.90
2017-07-11T19:10:54.350Z,12.97
2017-07-11T19:13:22.749Z,13.17
2017-07-11T19:15:51.149Z,13.17
2017-07-11T19:18:19.555Z,15.10
2017-07-11T19:20:47.970Z,15.20
2017-07-11T19:23:16.357Z,13.50
2017-07-11T19:25:44.946Z,14.10
2017-07-11T19:28:13.673Z,12.93
2017-07-11T19:30:42.670Z,14.97
2017-07-11T19:33:12.485Z,15.30
2017-07-11T19:35:42.074Z,22.60
2017-07-11T19:38:10.789Z,18.13
2017-07-11T19:40:39.178Z,15.90
2017-07-11T19:43:07.595Z,14.97
2017-07-11T19:45:35.994Z,14.20
2017-07-11T19:48:04.734Z,19.30
2017-07-11T19:50:33.121Z,16.43
2017-07-11T19:53:02.438Z,21.20
2017-07-11T19:55:31.310Z,19.20
2017-07-11T19:57:59.705Z,27.20
2017-07-11T20:00:29.010Z,19.70
2017-07-11T20:02:57.402Z,17.80
2017-07-11T20:05:25.810Z,20.50
2017-07-11T20:07:54.211Z,17.20
2017-07-11T20:10:22.990Z,18.43
2017-07-11T20:12:51.792Z,24.73
2017-07-11T20:15:20.228Z,18.73
2017-07-11T20:17:48.654Z,41.33
2017-07-11T20:20:17.785Z,27.27
2017-07-11T20:22:46.204Z,24.70
2017-07-11T20:25:14.649Z,40.27
2017-07-11T20:27:44.074Z,22.97
2017-07-11T20:30:12.798Z,20.93
2017-07-11T20:32:41.611Z,41.73
2017-07-11T20:35:10.273Z,21.50
2017-07-11T20:37:39.374Z,20.77
2017-07-11T20:40:08.187Z,19.87
2017-07-11T20:42:37.005Z,20.60
2017-07-11T20:45:05.394Z,18.93
2017-07-11T20:47:33.796Z,18.43
2017-07-11T20:50:02.194Z,20.73
2017-07-11T20:52:30.611Z,19.97
2017-07-11T20:54:59.001Z,19.03
2017-07-11T20:57:27.656Z,20.30
2017-07-11T20:59:56.422Z,19.53
2017-07-11T21:02:24.823Z,18.73
2017-07-11T21:04:53.319Z,18.87
2017-07-11T21:07:21.973Z,20.73
2017-07-11T21:09:50.784Z,19.80
2017-07-11T21:12:19.184Z,22.77
2017-07-11T21:14:47.584Z,21.80
2017-07-11T21:17:15.973Z,20.87
2017-07-11T21:19:44.692Z,19.83
2017-07-11T21:22:13.477Z,21.80
2017-07-11T21:24:42.273Z,21.90
2017-07-11T21:27:10.674Z,21.50
2017-07-11T21:29:39.087Z,23.63
2017-07-11T21:32:07.542Z,23.27
2017-07-11T21:34:35.945Z,21.90
2017-07-11T21:37:04.359Z,21.50
2017-07-11T21:39:33.470Z,22.33
2017-07-11T21:42:02.272Z,21.03
2017-07-11T21:44:30.661Z,20.77
2017-07-11T21:46:59.326Z,21.07
2017-07-11T21:49:28.109Z,19.90
2017-07-11T21:51:57.510Z,19.90
2017-07-11T21:54:27.276Z,19.70
2017-07-11T21:56:55.684Z,19.40
2017-07-11T21:59:24.076Z,20.37
2017-07-11T22:01:53.186Z,16.30
2017-07-11T22:04:21.964Z,18.00
2017-07-11T22:06:50.957Z,17.63
2017-07-11T22:09:19.740Z,16.70
2017-07-11T22:11:48.440Z,17.43
2017-07-11T22:14:16.853Z,20.33
2017-07-11T22:16:45.246Z,32.77
2017-07-11T22:19:13.877Z,17.27
2017-07-11T22:21:42.757Z,17.33
2017-07-11T22:24:11.199Z,18.27
2017-07-11T22:26:40.526Z,17.30
2017-07-11T22:29:09.252Z,33.00
2017-07-11T22:31:38.037Z,22.87
2017-07-11T22:34:07.846Z,17.03
2017-07-11T22:36:36.631Z,17.30
2017-07-11T22:39:05.739Z,16.27
2017-07-11T22:41:34.408Z,16.30
2017-07-11T22:44:02.810Z,17.33
2017-07-11T22:46:31.494Z,14.90
2017-07-11T22:49:00.469Z,14.00
2017-07-11T22:51:28.866Z,13.80
2017-07-11T22:53:57.651Z,11.77
2017-07-11T22:56:27.058Z,13.90
2017-07-11T22:58:55.845Z,15.70
2017-07-11T23:01:24.635Z,15.47
2017-07-11T23:03:53.628Z,15.63
2017-07-11T23:06:22.422Z,15.87
2017-07-11T23:08:51.209Z,15.80
2017-07-11T23:11:20.606Z,16.30
2017-07-11T23:13:49.773Z,15.97
2017-07-11T23:16:18.166Z,18.00
2017-07-11T23:18:46.757Z,20.53
2017-07-11T23:21:15.154Z,21.00
2017-07-11T23:23:43.959Z,23.50
2017-07-11T23:26:12.379Z,24.10
2017-07-11T23:28:40.994Z,24.83
2017-07-11T23:31:09.782Z,24.60
2017-07-11T23:33:38.577Z,24.20
2017-07-11T23:36:07.391Z,24.97
2017-07-11T23:38:36.069Z,24.80
2017-07-11T23:41:04.525Z,24.80
2017-07-11T23:43:33.325Z,25.07
2017-07-11T23:46:02.322Z,23.33
2017-07-11T23:48:31.893Z,23.20
2017-07-11T23:51:00.275Z,24.57
2017-07-11T23:53:28.686Z,23.53
2017-07-11T23:55:57.486Z,22.77
2017-07-11T23:58:26.587Z,22.53
